sensor_id;sensor_type;location;lat;lon;timestamp;pressure;altitude;pressure_sealevel;temperature;humidity
42297;BME280;28985;47.456;19.016;2022-11-20T00:00:16;100057.25;;;1.38;84.19
42297;BME280;28985;47.456;19.016;2022-11-20T00:02:42;100046.75;;;1.36;83.71
42297;BME280;28985;47.456;19.016;2022-11-20T00:05:09;100039.63;;;1.37;83.97
42297;BME280;28985;47.456;19.016;2022-11-20T00:07:35;100038.00;;;1.34;84.23
42297;BME280;28985;47.456;19.016;2022-11-20T00:10:02;100044.09;;;1.36;83.93
42297;BME280;28985;47.456;19.016;2022-11-20T00:12:29;100048.81;;;1.31;84.30
42297;BME280;28985;47.456;19.016;2022-11-20T00:14:55;100057.38;;;1.36;84.32
42297;BME280;28985;47.456;19.016;2022-11-20T00:17:22;100056.50;;;1.36;83.98
42297;BME280;28985;47.456;19.016;2022-11-20T00:19:49;100056.78;;;1.31;83.92
42297;BME280;28985;47.456;19.016;2022-11-20T00:22:15;100062.97;;;1.30;83.84
42297;BME280;28985;47.456;19.016;2022-11-20T00:24:42;100076.50;;;1.25;84.33
42297;BME280;28985;47.456;19.016;2022-11-20T00:27:08;100080.25;;;1.21;84.43
42297;BME280;28985;47.456;19.016;2022-11-20T00:29:35;100069.09;;;1.16;85.02
42297;BME280;28985;47.456;19.016;2022-11-20T00:32:01;100066.25;;;1.19;84.74
42297;BME280;28985;47.456;19.016;2022-11-20T00:34:28;100084.13;;;1.15;85.11
42297;BME280;28985;47.456;19.016;2022-11-20T00:36:55;100096.34;;;1.18;85.39
42297;BME280;28985;47.456;19.016;2022-11-20T00:39:23;100096.34;;;1.18;85.20
42297;BME280;28985;47.456;19.016;2022-11-20T00:41:50;100084.13;;;1.15;85.47
42297;BME280;28985;47.456;19.016;2022-11-20T00:44:16;100076.25;;;1.14;85.40
42297;BME280;28985;47.456;19.016;2022-11-20T00:46:43;100074.81;;;1.08;86.10
42297;BME280;28985;47.456;19.016;2022-11-20T00:49:09;100070.19;;;1.12;85.25
42297;BME280;28985;47.456;19.016;2022-11-20T00:51:36;100064.97;;;1.10;85.41
42297;BME280;28985;47.456;19.016;2022-11-20T00:54:03;100060.53;;;1.11;85.25
42297;BME280;28985;47.456;19.016;2022-11-20T00:56:29;100059.66;;;1.10;84.82
42297;BME280;28985;47.456;19.016;2022-11-20T00:58:59;100051.69;;;1.10;85.85
42297;BME280;28985;47.456;19.016;2022-11-20T01:01:27;100058.91;;;1.08;85.77
42297;BME280;28985;47.456;19.016;2022-11-20T01:03:59;100051.03;;;1.06;85.47
42297;BME280;28985;47.456;19.016;2022-11-20T01:06:34;100045.78;;;1.05;85.27
42297;BME280;28985;47.456;19.016;2022-11-20T01:09:08;100062.38;;;1.09;85.60
42297;BME280;28985;47.456;19.016;2022-11-20T01:11:38;100066.16;;;1.04;85.73
42297;BME280;28985;47.456;19.016;2022-11-20T01:14:07;100065.38;;;1.02;85.65
42297;BME280;28985;47.456;19.016;2022-11-20T01:16:37;100070.84;;;0.99;86.04
42297;BME280;28985;47.456;19.016;2022-11-20T01:19:07;100068.97;;;1.01;85.80
42297;BME280;28985;47.456;19.016;2022-11-20T01:21:40;100070.59;;;1.04;86.09
42297;BME280;28985;47.456;19.016;2022-11-20T01:24:08;100061.78;;;1.03;86.67
42297;BME280;28985;47.456;19.016;2022-11-20T01:26:38;100063.41;;;1.06;86.11
42297;BME280;28985;47.456;19.016;2022-11-20T01:29:06;100066.78;;;1.10;86.13
42297;BME280;28985;47.456;19.016;2022-11-20T01:31:35;100066.91;;;1.06;87.27
42297;BME280;28985;47.456;19.016;2022-11-20T01:34:07;100066.84;;;1.08;87.26
42297;BME280;28985;47.456;19.016;2022-11-20T01:36:38;100065.13;;;1.07;87.57
42297;BME280;28985;47.456;19.016;2022-11-20T01:39:07;100057.94;;;1.09;87.78
42297;BME280;28985;47.456;19.016;2022-11-20T01:41:36;100060.59;;;1.09;87.79
42297;BME280;28985;47.456;19.016;2022-11-20T01:44:22;100049.81;;;1.12;87.55
42297;BME280;28985;47.456;19.016;2022-11-20T01:47:07;100048.28;;;1.08;88.63
42297;BME280;28985;47.456;19.016;2022-11-20T01:49:40;100048.28;;;1.08;89.09
42297;BME280;28985;47.456;19.016;2022-11-20T01:54:49;100037.91;;;1.03;89.97
42297;BME280;28985;47.456;19.016;2022-11-20T01:57:19;100041.34;;;1.05;90.41
42297;BME280;28985;47.456;19.016;2022-11-20T01:59:55;100040.50;;;1.05;90.11
42297;BME280;28985;47.456;19.016;2022-11-20T02:02:23;100044.84;;;1.06;90.49
42297;BME280;28985;47.456;19.016;2022-11-20T02:04:51;100040.34;;;1.08;90.96
42297;BME280;28985;47.456;19.016;2022-11-20T02:07:20;100043.81;;;1.09;90.42
42297;BME280;28985;47.456;19.016;2022-11-20T02:09:50;100047.34;;;1.09;90.97
42297;BME280;28985;47.456;19.016;2022-11-20T02:12:23;100051.44;;;1.15;90.37
42297;BME280;28985;47.456;19.016;2022-11-20T02:15:09;100054.09;;;1.15;90.22
42297;BME280;28985;47.456;19.016;2022-11-20T02:17:35;100051.34;;;1.16;90.25
42297;BME280;28985;47.456;19.016;2022-11-20T02:20:02;100044.44;;;1.14;90.71
42297;BME280;28985;47.456;19.016;2022-11-20T02:22:35;100047.75;;;1.17;90.48
42297;BME280;28985;47.456;19.016;2022-11-20T02:25:07;100058.28;;;1.19;90.62
42297;BME280;28985;47.456;19.016;2022-11-20T02:27:34;100051.09;;;1.21;90.57
42297;BME280;28985;47.456;19.016;2022-11-20T02:30:04;100042.03;;;1.25;90.01
42297;BME280;28985;47.456;19.016;2022-11-20T02:32:35;100039.38;;;1.25;90.16
42297;BME280;28985;47.456;19.016;2022-11-20T02:37:49;100034.94;;;1.26;91.18
42297;BME280;28985;47.456;19.016;2022-11-20T02:40:17;100031.69;;;1.20;91.51
42297;BME280;28985;47.456;19.016;2022-11-20T02:42:43;100027.16;;;1.23;90.73
42297;BME280;28985;47.456;19.016;2022-11-20T02:45:10;100031.50;;;1.24;91.83
42297;BME280;28985;47.456;19.016;2022-11-20T02:47:37;100029.72;;;1.24;91.66
42297;BME280;28985;47.456;19.016;2022-11-20T02:50:04;100031.44;;;1.25;91.64
42297;BME280;28985;47.456;19.016;2022-11-20T02:52:31;100033.25;;;1.25;91.92
42297;BME280;28985;47.456;19.016;2022-11-20T02:54:58;100030.31;;;1.29;91.88
42297;BME280;28985;47.456;19.016;2022-11-20T02:57:24;100024.25;;;1.27;91.64
42297;BME280;28985;47.456;19.016;2022-11-20T02:59:51;100019.63;;;1.31;91.62
42297;BME280;28985;47.456;19.016;2022-11-20T03:02:17;100020.41;;;1.33;91.69
42297;BME280;28985;47.456;19.016;2022-11-20T03:04:44;100011.56;;;1.32;91.84
42297;BME280;28985;47.456;19.016;2022-11-20T03:07:10;100000.88;;;1.34;91.33
42297;BME280;28985;47.456;19.016;2022-11-20T03:09:37;100001.75;;;1.34;91.40
42297;BME280;28985;47.456;19.016;2022-11-20T03:12:04;100003.44;;;1.36;91.75
42297;BME280;28985;47.456;19.016;2022-11-20T03:14:30;100011.22;;;1.39;91.43
42297;BME280;28985;47.456;19.016;2022-11-20T03:16:57;100005.06;;;1.38;91.23
42297;BME280;28985;47.456;19.016;2022-11-20T03:19:24;100011.22;;;1.39;91.16
42297;BME280;28985;47.456;19.016;2022-11-20T03:21:50;100026.28;;;1.38;90.96
42297;BME280;28985;47.456;19.016;2022-11-20T03:24:17;100034.25;;;1.38;91.19
42297;BME280;28985;47.456;19.016;2022-11-20T03:26:43;100042.28;;;1.37;91.08
42297;BME280;28985;47.456;19.016;2022-11-20T03:29:10;100043.16;;;1.37;90.98
42297;BME280;28985;47.456;19.016;2022-11-20T03:31:39;100032.56;;;1.37;90.69
42297;BME280;28985;47.456;19.016;2022-11-20T03:34:08;100024.47;;;1.39;90.91
42297;BME280;28985;47.456;19.016;2022-11-20T03:36:37;100024.47;;;1.39;91.26
42297;BME280;28985;47.456;19.016;2022-11-20T03:39:04;100021.84;;;1.39;91.53
42297;BME280;28985;47.456;19.016;2022-11-20T03:41:35;100010.38;;;1.38;91.01
42297;BME280;28985;47.456;19.016;2022-11-20T03:44:04;100012.09;;;1.39;90.75
42297;BME280;28985;47.456;19.016;2022-11-20T03:46:31;100006.88;;;1.38;90.77
42297;BME280;28985;47.456;19.016;2022-11-20T03:48:58;100006.88;;;1.38;91.09
42297;BME280;28985;47.456;19.016;2022-11-20T03:51:30;100016.53;;;1.39;90.69
42297;BME280;28985;47.456;19.016;2022-11-20T03:53:58;100019.09;;;1.40;90.70
42297;BME280;28985;47.456;19.016;2022-11-20T03:56:30;100014.38;;;1.45;90.53
42297;BME280;28985;47.456;19.016;2022-11-20T03:58:58;100015.94;;;1.50;89.41
42297;BME280;28985;47.456;19.016;2022-11-20T04:01:26;100012.25;;;1.52;89.58
42297;BME280;28985;47.456;19.016;2022-11-20T04:03:55;100007.78;;;1.53;89.76
42297;BME280;28985;47.456;19.016;2022-11-20T04:06:30;100013.88;;;1.55;89.14
42297;BME280;28985;47.456;19.016;2022-11-20T04:08:58;100004.22;;;1.54;89.70
42297;BME280;28985;47.456;19.016;2022-11-20T04:11:27;99996.13;;;1.55;89.11
42297;BME280;28985;47.456;19.016;2022-11-20T04:13:57;99990.94;;;1.54;88.69
42297;BME280;28985;47.456;19.016;2022-11-20T04:16:25;99991.69;;;1.56;89.04
42297;BME280;28985;47.456;19.016;2022-11-20T04:18:53;99985.63;;;1.54;88.77
42297;BME280;28985;47.456;19.016;2022-11-20T04:21:21;99973.97;;;1.56;89.20
42297;BME280;28985;47.456;19.016;2022-11-20T04:23:48;99965.09;;;1.57;89.23
42297;BME280;28985;47.456;19.016;2022-11-20T04:26:15;99976.63;;;1.56;88.46
42297;BME280;28985;47.456;19.016;2022-11-20T04:28:42;99979.19;;;1.58;87.88
42297;BME280;28985;47.456;19.016;2022-11-20T04:31:11;99990.66;;;1.58;87.70
42297;BME280;28985;47.456;19.016;2022-11-20T04:33:39;99982.63;;;1.60;87.82
42297;BME280;28985;47.456;19.016;2022-11-20T04:36:23;99984.50;;;1.58;87.49
42297;BME280;28985;47.456;19.016;2022-11-20T04:38:54;99980.22;;;1.55;88.06
42297;BME280;28985;47.456;19.016;2022-11-20T04:41:27;99982.88;;;1.55;88.53
42297;BME280;28985;47.456;19.016;2022-11-20T04:43:57;99975.78;;;1.56;88.65
42297;BME280;28985;47.456;19.016;2022-11-20T04:46:27;99974.91;;;1.55;89.15
42297;BME280;28985;47.456;19.016;2022-11-20T04:48:54;99974.06;;;1.55;88.93
42297;BME280;28985;47.456;19.016;2022-11-20T04:51:21;99957.38;;;1.53;89.44
42297;BME280;28985;47.456;19.016;2022-11-20T04:53:48;99954.56;;;1.56;88.71
42297;BME280;28985;47.456;19.016;2022-11-20T04:56:15;99952.06;;;1.53;88.94
42297;BME280;28985;47.456;19.016;2022-11-20T04:58:41;99951.16;;;1.54;89.25
42297;BME280;28985;47.456;19.016;2022-11-20T05:01:22;99946.75;;;1.53;89.72
42297;BME280;28985;47.456;19.016;2022-11-20T05:03:50;99947.53;;;1.55;89.69
42297;BME280;28985;47.456;19.016;2022-11-20T05:06:19;99963.28;;;1.58;89.69
42297;BME280;28985;47.456;19.016;2022-11-20T05:08:46;99972.94;;;1.59;89.95
42297;BME280;28985;47.456;19.016;2022-11-20T05:11:18;99971.31;;;1.56;90.09
42297;BME280;28985;47.456;19.016;2022-11-20T05:13:45;99973.97;;;1.56;90.34
42297;BME280;28985;47.456;19.016;2022-11-20T05:16:17;99974.06;;;1.55;90.86
42297;BME280;28985;47.456;19.016;2022-11-20T05:18:44;99965.09;;;1.57;90.50
42297;BME280;28985;47.456;19.016;2022-11-20T05:21:12;99954.34;;;1.59;90.42
42297;BME280;28985;47.456;19.016;2022-11-20T05:23:39;99956.84;;;1.62;90.35
42297;BME280;28985;47.456;19.016;2022-11-20T05:26:08;99963.94;;;1.61;91.04
42297;BME280;28985;47.456;19.016;2022-11-20T05:28:38;99962.16;;;1.62;90.60
42297;BME280;28985;47.456;19.016;2022-11-20T05:31:09;99941.78;;;1.63;90.41
42297;BME280;28985;47.456;19.016;2022-11-20T05:33:36;99935.41;;;1.65;89.77
42297;BME280;28985;47.456;19.016;2022-11-20T05:36:04;99935.25;;;1.68;89.65
42297;BME280;28985;47.456;19.016;2022-11-20T05:38:30;99931.47;;;1.72;89.75
42297;BME280;28985;47.456;19.016;2022-11-20T05:41:08;99932.44;;;1.71;90.08
42297;BME280;28985;47.456;19.016;2022-11-20T05:43:36;99930.03;;;1.67;91.20
42297;BME280;28985;47.456;19.016;2022-11-20T05:46:04;99944.84;;;1.71;90.46
42297;BME280;28985;47.456;19.016;2022-11-20T05:48:32;99946.44;;;1.73;90.05
42297;BME280;28985;47.456;19.016;2022-11-20T05:51:00;99946.53;;;1.72;90.76
42297;BME280;28985;47.456;19.016;2022-11-20T05:53:27;99948.06;;;1.76;89.94
42297;BME280;28985;47.456;19.016;2022-11-20T05:56:06;99960.69;;;1.72;89.46
42297;BME280;28985;47.456;19.016;2022-11-20T05:58:33;99963.69;;;1.66;88.75
42297;BME280;28985;47.456;19.016;2022-11-20T06:01:08;99972.75;;;1.62;89.61
42297;BME280;28985;47.456;19.016;2022-11-20T06:03:36;99958.81;;;1.58;89.49
42297;BME280;28985;47.456;19.016;2022-11-20T06:06:04;99963.19;;;1.59;90.05
42297;BME280;28985;47.456;19.016;2022-11-20T06:08:31;99972.94;;;1.59;89.57
42297;BME280;28985;47.456;19.016;2022-11-20T06:10:58;99978.44;;;1.56;90.28
42297;BME280;28985;47.456;19.016;2022-11-20T06:13:28;99968.66;;;1.56;89.77
42297;BME280;28985;47.456;19.016;2022-11-20T06:15:55;99965.56;;;1.64;89.66
42297;BME280;28985;47.456;19.016;2022-11-20T06:18:21;99957.44;;;1.67;89.38
42297;BME280;28985;47.456;19.016;2022-11-20T06:20:48;99961.97;;;1.65;89.08
42297;BME280;28985;47.456;19.016;2022-11-20T06:23:15;99956.75;;;1.64;88.87
42297;BME280;28985;47.456;19.016;2022-11-20T06:25:42;99964.13;;;1.58;89.35
42297;BME280;28985;47.456;19.016;2022-11-20T06:28:09;99953.59;;;1.57;89.34
42297;BME280;28985;47.456;19.016;2022-11-20T06:30:35;99962.50;;;1.56;89.04
42297;BME280;28985;47.456;19.016;2022-11-20T06:33:02;99974.91;;;1.55;89.71
42297;BME280;28985;47.456;19.016;2022-11-20T06:35:29;99982.97;;;1.54;89.49
42297;BME280;28985;47.456;19.016;2022-11-20T06:37:55;99990.84;;;1.55;89.85
42297;BME280;28985;47.456;19.016;2022-11-20T06:40:22;100001.63;;;1.52;90.08
42297;BME280;28985;47.456;19.016;2022-11-20T06:42:49;100005.13;;;1.53;90.21
42297;BME280;28985;47.456;19.016;2022-11-20T06:45:15;99997.00;;;1.56;90.54
42297;BME280;28985;47.456;19.016;2022-11-20T06:47:42;100004.09;;;1.55;90.39
42297;BME280;28985;47.456;19.016;2022-11-20T06:50:08;100011.09;;;1.56;91.29
42297;BME280;28985;47.456;19.016;2022-11-20T06:52:35;100010.06;;;1.59;91.02
42297;BME280;28985;47.456;19.016;2022-11-20T06:55:08;99998.34;;;1.63;90.82
42297;BME280;28985;47.456;19.016;2022-11-20T06:57:35;99984.81;;;1.68;90.87
42297;BME280;28985;47.456;19.016;2022-11-20T07:00:02;99982.75;;;1.73;91.74
42297;BME280;28985;47.456;19.016;2022-11-20T07:02:29;99991.38;;;1.77;91.00
42297;BME280;28985;47.456;19.016;2022-11-20T07:04:58;99989.50;;;1.79;90.72
42297;BME280;28985;47.456;19.016;2022-11-20T07:07:24;99982.97;;;1.84;91.08
42297;BME280;28985;47.456;19.016;2022-11-20T07:09:51;99981.19;;;1.85;90.82
42297;BME280;28985;47.456;19.016;2022-11-20T07:12:17;99990.63;;;1.89;90.33
42297;BME280;28985;47.456;19.016;2022-11-20T07:14:44;99996.16;;;1.86;90.65
42297;BME280;28985;47.456;19.016;2022-11-20T07:17:11;100004.28;;;1.83;91.02
42297;BME280;28985;47.456;19.016;2022-11-20T07:19:38;100005.16;;;1.83;91.60
42297;BME280;28985;47.456;19.016;2022-11-20T07:22:04;100005.72;;;1.88;92.58
42297;BME280;28985;47.456;19.016;2022-11-20T07:24:31;100005.66;;;1.90;92.88
42297;BME280;28985;47.456;19.016;2022-11-20T07:26:57;100001.97;;;1.93;92.86
42297;BME280;28985;47.456;19.016;2022-11-20T07:29:24;100008.09;;;1.93;93.38
42297;BME280;28985;47.456;19.016;2022-11-20T07:31:51;100012.38;;;1.96;94.83
42297;BME280;28985;47.456;19.016;2022-11-20T07:34:17;100014.94;;;1.97;94.49
42297;BME280;28985;47.456;19.016;2022-11-20T07:36:44;100013.63;;;2.05;94.11
42297;BME280;28985;47.456;19.016;2022-11-20T07:39:10;100014.97;;;2.12;94.61
42297;BME280;28985;47.456;19.016;2022-11-20T07:41:37;100021.72;;;2.18;94.49
42297;BME280;28985;47.456;19.016;2022-11-20T07:44:03;100020.59;;;2.22;96.16
42297;BME280;28985;47.456;19.016;2022-11-20T07:46:31;100026.84;;;2.21;95.71
42297;BME280;28985;47.456;19.016;2022-11-20T07:48:57;100017.25;;;2.18;94.65
42297;BME280;28985;47.456;19.016;2022-11-20T07:51:24;100018.63;;;2.25;94.51
42297;BME280;28985;47.456;19.016;2022-11-20T07:53:52;100026.47;;;2.27;94.44
42297;BME280;28985;47.456;19.016;2022-11-20T07:56:19;100020.13;;;2.30;94.79
42297;BME280;28985;47.456;19.016;2022-11-20T07:58:45;100020.13;;;2.30;94.62
42297;BME280;28985;47.456;19.016;2022-11-20T08:01:12;100012.56;;;2.38;94.38
42297;BME280;28985;47.456;19.016;2022-11-20T08:03:38;100008.06;;;2.38;94.45
42297;BME280;28985;47.456;19.016;2022-11-20T08:06:05;99994.31;;;2.46;94.21
42297;BME280;28985;47.456;19.016;2022-11-20T08:08:32;99992.44;;;2.48;94.78
42297;BME280;28985;47.456;19.016;2022-11-20T08:11:00;99992.91;;;2.55;94.87
42297;BME280;28985;47.456;19.016;2022-11-20T08:13:45;99997.09;;;2.59;95.16
42297;BME280;28985;47.456;19.016;2022-11-20T08:16:30;100005.53;;;2.66;95.39
42297;BME280;28985;47.456;19.016;2022-11-20T08:18:57;100006.84;;;2.73;94.76
42297;BME280;28985;47.456;19.016;2022-11-20T08:21:23;100004.00;;;2.76;94.62
42297;BME280;28985;47.456;19.016;2022-11-20T08:23:50;99990.44;;;2.81;95.01
42297;BME280;28985;47.456;19.016;2022-11-20T08:26:17;99986.91;;;2.80;95.94
42297;BME280;28985;47.456;19.016;2022-11-20T08:28:44;99982.06;;;2.87;97.00
42297;BME280;28985;47.456;19.016;2022-11-20T08:31:11;99981.75;;;2.92;97.35
42297;BME280;28985;47.456;19.016;2022-11-20T08:33:38;99983.06;;;2.99;97.30
42297;BME280;28985;47.456;19.016;2022-11-20T08:36:06;99994.19;;;3.06;97.12
42297;BME280;28985;47.456;19.016;2022-11-20T08:38:34;100004.41;;;3.12;95.53
42297;BME280;28985;47.456;19.016;2022-11-20T08:41:02;100006.22;;;3.12;95.52
42297;BME280;28985;47.456;19.016;2022-11-20T08:43:53;99998.78;;;3.17;94.61
42297;BME280;28985;47.456;19.016;2022-11-20T08:46:20;100000.50;;;3.18;94.35
42297;BME280;28985;47.456;19.016;2022-11-20T08:48:47;100012.19;;;3.15;93.85
42297;BME280;28985;47.456;19.016;2022-11-20T08:51:14;100009.44;;;3.17;93.91
42297;BME280;28985;47.456;19.016;2022-11-20T08:53:41;100022.44;;;3.21;94.22
42297;BME280;28985;47.456;19.016;2022-11-20T08:56:08;100015.97;;;3.26;94.45
42297;BME280;28985;47.456;19.016;2022-11-20T08:58:36;100020.25;;;3.28;94.66
42297;BME280;28985;47.456;19.016;2022-11-20T09:01:23;100026.53;;;3.27;95.68
42297;BME280;28985;47.456;19.016;2022-11-20T09:03:50;100042.47;;;3.27;96.09
42297;BME280;28985;47.456;19.016;2022-11-20T09:06:17;100034.69;;;3.24;96.10
42297;BME280;28985;47.456;19.016;2022-11-20T09:08:44;100036.28;;;3.27;96.58
42297;BME280;28985;47.456;19.016;2022-11-20T09:11:11;100030.53;;;3.20;94.99
42297;BME280;28985;47.456;19.016;2022-11-20T09:13:37;100030.41;;;3.21;95.02
42297;BME280;28985;47.456;19.016;2022-11-20T09:16:07;100039.44;;;3.19;94.36
42297;BME280;28985;47.456;19.016;2022-11-20T09:18:36;100044.09;;;3.15;93.43
42297;BME280;28985;47.456;19.016;2022-11-20T09:21:06;100036.03;;;3.17;94.10
42297;BME280;28985;47.456;19.016;2022-11-20T09:23:35;100041.91;;;3.22;94.34
42297;BME280;28985;47.456;19.016;2022-11-20T09:26:04;100030.13;;;3.26;94.80
42297;BME280;28985;47.456;19.016;2022-11-20T09:28:31;100030.78;;;3.30;93.89
42297;BME280;28985;47.456;19.016;2022-11-20T09:30:58;100030.88;;;3.28;92.73
42297;BME280;28985;47.456;19.016;2022-11-20T09:33:25;100029.94;;;3.29;92.97
42297;BME280;28985;47.456;19.016;2022-11-20T09:35:52;100018.13;;;3.33;93.18
42297;BME280;28985;47.456;19.016;2022-11-20T09:38:18;100017.84;;;3.38;93.65
42297;BME280;28985;47.456;19.016;2022-11-20T09:40:52;100015.53;;;3.46;93.67
42297;BME280;28985;47.456;19.016;2022-11-20T09:46:04;100022.41;;;3.63;94.19
42297;BME280;28985;47.456;19.016;2022-11-20T09:56:40;100006.03;;;3.70;93.54
42297;BME280;28985;47.456;19.016;2022-11-20T09:59:26;100005.41;;;3.79;93.88
42297;BME280;28985;47.456;19.016;2022-11-20T10:01:55;100010.88;;;3.91;94.59
42297;BME280;28985;47.456;19.016;2022-11-20T10:04:22;100007.56;;;4.00;94.56
42297;BME280;28985;47.456;19.016;2022-11-20T10:07:11;100006.84;;;4.11;95.30
42297;BME280;28985;47.456;19.016;2022-11-20T10:09:57;100004.19;;;4.24;94.97
42297;BME280;28985;47.456;19.016;2022-11-20T10:12:52;99980.63;;;4.30;94.54
42297;BME280;28985;47.456;19.016;2022-11-20T10:18:05;99960.88;;;4.46;92.96
42297;BME280;28985;47.456;19.016;2022-11-20T10:20:57;99955.97;;;4.66;93.39
42297;BME280;28985;47.456;19.016;2022-11-20T10:23:38;99956.75;;;4.92;95.66
42297;BME280;28985;47.456;19.016;2022-11-20T10:29:11;99961.13;;;5.67;96.97
42297;BME280;28985;47.456;19.016;2022-11-20T10:31:44;99950.63;;;5.88;93.90
42297;BME280;28985;47.456;19.016;2022-11-20T10:34:21;99953.84;;;6.04;90.98
42297;BME280;28985;47.456;19.016;2022-11-20T10:37:16;99942.94;;;6.30;91.56
42297;BME280;28985;47.456;19.016;2022-11-20T10:42:30;99946.09;;;6.81;91.01
42297;BME280;28985;47.456;19.016;2022-11-20T10:45:55;99942.59;;;7.14;88.74
42297;BME280;28985;47.456;19.016;2022-11-20T10:50:45;99928.34;;;7.78;83.75
42297;BME280;28985;47.456;19.016;2022-11-20T10:53:47;99927.16;;;8.14;79.79
42297;BME280;28985;47.456;19.016;2022-11-20T11:02:22;99950.66;;;9.04;73.78
42297;BME280;28985;47.456;19.016;2022-11-20T11:04:53;99950.97;;;9.10;71.83
42297;BME280;28985;47.456;19.016;2022-11-20T11:07:30;99960.16;;;9.08;69.41
42297;BME280;28985;47.456;19.016;2022-11-20T11:10:01;99960.00;;;8.99;68.79
42297;BME280;28985;47.456;19.016;2022-11-20T11:12:28;99957.56;;;8.86;70.82
42297;BME280;28985;47.456;19.016;2022-11-20T11:14:56;99962.03;;;8.76;71.61
42297;BME280;28985;47.456;19.016;2022-11-20T11:17:32;99961.16;;;8.66;71.33
42297;BME280;28985;47.456;19.016;2022-11-20T11:22:28;99964.97;;;8.42;72.75
42297;BME280;28985;47.456;19.016;2022-11-20T11:24:55;99962.81;;;8.36;73.39
42297;BME280;28985;47.456;19.016;2022-11-20T11:27:22;99958.13;;;8.28;73.48
42297;BME280;28985;47.456;19.016;2022-11-20T11:29:48;99965.31;;;8.27;73.61
42297;BME280;28985;47.456;19.016;2022-11-20T11:32:18;99959.72;;;8.30;73.69
42297;BME280;28985;47.456;19.016;2022-11-20T11:35:04;99950.38;;;8.35;74.41
42297;BME280;28985;47.456;19.016;2022-11-20T11:37:35;99958.84;;;8.30;74.93
42297;BME280;28985;47.456;19.016;2022-11-20T11:40:08;99955.72;;;8.25;74.83
42297;BME280;28985;47.456;19.016;2022-11-20T11:42:57;99947.13;;;8.31;74.20
42297;BME280;28985;47.456;19.016;2022-11-20T11:45:24;99948.25;;;8.28;73.35
42297;BME280;28985;47.456;19.016;2022-11-20T11:47:52;99942.72;;;8.20;72.95
42297;BME280;28985;47.456;19.016;2022-11-20T11:50:29;99939.56;;;8.15;73.01
42297;BME280;28985;47.456;19.016;2022-11-20T11:53:12;99928.72;;;8.16;73.08
42297;BME280;28985;47.456;19.016;2022-11-20T11:55:45;99923.19;;;8.18;73.33
42297;BME280;28985;47.456;19.016;2022-11-20T11:58:19;99918.44;;;8.22;74.41
42297;BME280;28985;47.456;19.016;2022-11-20T12:01:16;99921.19;;;8.31;74.92
42297;BME280;28985;47.456;19.016;2022-11-20T12:03:55;99920.19;;;8.32;71.29
42297;BME280;28985;47.456;19.016;2022-11-20T12:06:25;99927.91;;;8.26;69.27
42297;BME280;28985;47.456;19.016;2022-11-20T12:14:19;99926.53;;;8.31;68.17
42297;BME280;28985;47.456;19.016;2022-11-20T12:16:50;99929.38;;;8.40;68.76
42297;BME280;28985;47.456;19.016;2022-11-20T12:19:19;99924.59;;;8.12;66.72
42297;BME280;28985;47.456;19.016;2022-11-20T12:25:04;99923.06;;;7.67;68.05
42297;BME280;28985;47.456;19.016;2022-11-20T12:27:52;99924.47;;;7.50;68.50
42297;BME280;28985;47.456;19.016;2022-11-20T12:30:21;99923.56;;;7.39;69.14
42297;BME280;28985;47.456;19.016;2022-11-20T12:36:07;99921.13;;;6.92;70.01
42297;BME280;28985;47.456;19.016;2022-11-20T12:38:49;99918.44;;;6.92;70.77
42297;BME280;28985;47.456;19.016;2022-11-20T12:51:57;99937.72;;;6.63;71.59
42297;BME280;28985;47.456;19.016;2022-11-20T12:54:16;99939.78;;;6.48;72.50
42297;BME280;28985;47.456;19.016;2022-11-20T12:57:09;99947.56;;;6.40;73.01
42297;BME280;28985;47.456;19.016;2022-11-20T13:00:15;99938.56;;;6.41;73.35
42297;BME280;28985;47.456;19.016;2022-11-20T13:05:37;99938.69;;;6.39;73.98
42297;BME280;28985;47.456;19.016;2022-11-20T13:08:39;99930.66;;;6.39;74.44
42297;BME280;28985;47.456;19.016;2022-11-20T13:13:53;99933.22;;;6.29;73.79
42297;BME280;28985;47.456;19.016;2022-11-20T13:16:36;99940.66;;;6.37;74.08
42297;BME280;28985;47.456;19.016;2022-11-20T13:19:04;99938.56;;;6.41;74.06
42297;BME280;28985;47.456;19.016;2022-11-20T13:21:38;99937.09;;;6.37;73.61
42297;BME280;28985;47.456;19.016;2022-11-20T13:24:21;99943.31;;;6.37;73.37
42297;BME280;28985;47.456;19.016;2022-11-20T13:27:17;99935.41;;;6.47;74.09
42297;BME280;28985;47.456;19.016;2022-11-20T13:29:46;99921.44;;;6.55;73.71
42297;BME280;28985;47.456;19.016;2022-11-20T13:32:16;99915.00;;;6.57;73.18
42297;BME280;28985;47.456;19.016;2022-11-20T13:34:54;99910.38;;;6.60;72.81
42297;BME280;28985;47.456;19.016;2022-11-20T13:37:28;99907.31;;;6.64;73.25
42297;BME280;28985;47.456;19.016;2022-11-20T13:42:40;99900.13;;;6.76;73.43
42297;BME280;28985;47.456;19.016;2022-11-20T13:45:21;99903.28;;;6.81;74.02
42297;BME280;28985;47.456;19.016;2022-11-20T13:47:50;99897.94;;;6.81;74.01
42297;BME280;28985;47.456;19.016;2022-11-20T13:50:18;99903.16;;;6.83;75.01
42297;BME280;28985;47.456;19.016;2022-11-20T13:53:13;99900.34;;;6.84;74.29
42297;BME280;28985;47.456;19.016;2022-11-20T13:56:18;99902.81;;;6.76;72.80
42297;BME280;28985;47.456;19.016;2022-11-20T13:59:02;99901.72;;;6.79;74.79
42297;BME280;28985;47.456;19.016;2022-11-20T14:01:42;99901.31;;;6.83;76.69
42297;BME280;28985;47.456;19.016;2022-11-20T14:04:18;99893.66;;;6.90;73.81
42297;BME280;28985;47.456;19.016;2022-11-20T14:06:48;99894.63;;;6.89;74.33
42297;BME280;28985;47.456;19.016;2022-11-20T14:09:32;99892.69;;;6.91;75.00
42297;BME280;28985;47.456;19.016;2022-11-20T14:12:03;99897.44;;;6.88;74.57
42297;BME280;28985;47.456;19.016;2022-11-20T14:14:32;99891.38;;;6.85;73.89
42297;BME280;28985;47.456;19.016;2022-11-20T14:17:18;99893.31;;;6.72;74.50
42297;BME280;28985;47.456;19.016;2022-11-20T14:19:46;99895.41;;;6.57;74.99